createdAt,value
2018-05-11T00:00:49.137Z,19.68
2018-05-11T00:01:48.984Z,19.68
2018-05-11T00:02:49.179Z,19.68
2018-05-11T00:03:49.041Z,19.7
2018-05-11T00:04:49.124Z,19.68
2018-05-11T00:05:49.009Z,19.68
2018-05-11T00:06:48.956Z,19.65
2018-05-11T00:07:49.075Z,19.7
2018-05-11T00:08:49.044Z,19.68
2018-05-11T00:09:49.224Z,19.7
2018-05-11T00:10:49.171Z,19.7
2018-05-11T00:11:49.514Z,19.7
2018-05-11T00:12:49.037Z,19.68
2018-05-11T00:13:48.955Z,19.67
2018-05-11T00:14:49.192Z,19.7
2018-05-11T00:15:49.124Z,19.65
2018-05-11T00:16:49.156Z,19.68
2018-05-11T00:17:49.125Z,19.67
2018-05-11T00:18:49.039Z,19.68
2018-05-11T00:19:48.985Z,19.68
2018-05-11T00:20:48.958Z,19.67
2018-05-11T00:21:49.121Z,19.67
2018-05-11T00:22:49.020Z,19.63
2018-05-11T00:23:48.968Z,19.65
2018-05-11T00:24:49.203Z,19.68
2018-05-11T00:25:49.129Z,19.64
2018-05-11T00:26:49.062Z,19.63
2018-05-11T00:27:48.994Z,19.64
2018-05-11T00:28:49.057Z,19.64
2018-05-11T00:29:49.115Z,19.64
2018-05-11T00:30:49.062Z,19.63
2018-05-11T00:31:49.258Z,19.65
2018-05-11T00:32:49.012Z,19.64
2018-05-11T00:33:49.065Z,19.65
2018-05-11T00:34:48.997Z,19.63
2018-05-11T00:35:49.162Z,19.65
2018-05-11T00:36:49.110Z,19.64
2018-05-11T00:37:49.125Z,19.63
2018-05-11T00:38:49.253Z,19.64
2018-05-11T00:39:49.020Z,19.64
2018-05-11T00:40:49.173Z,19.64
2018-05-11T00:41:49.041Z,19.67
2018-05-11T00:42:49.110Z,19.65
2018-05-11T00:43:49.041Z,19.61
2018-05-11T00:44:49.152Z,19.64
2018-05-11T00:45:49.123Z,19.65
2018-05-11T00:46:49.184Z,19.65
2018-05-11T00:47:49.289Z,19.63
2018-05-11T00:48:49.037Z,19.63
2018-05-11T00:49:49.165Z,19.64
2018-05-11T00:50:49.006Z,19.63
2018-05-11T00:51:49.025Z,19.63
2018-05-11T00:52:49.018Z,19.63
2018-05-11T00:53:49.261Z,19.63
2018-05-11T00:54:49.098Z,19.64
2018-05-11T00:55:49.110Z,19.64
2018-05-11T00:56:49.136Z,19.6
2018-05-11T00:57:49.204Z,19.63
2018-05-11T00:58:49.237Z,19.64
2018-05-11T00:59:49.318Z,19.65
2018-05-11T01:00:49.108Z,19.64
2018-05-11T01:01:49.367Z,19.63
2018-05-11T01:02:49.055Z,19.63
2018-05-11T01:03:49.350Z,19.63
2018-05-11T01:04:49.088Z,19.64
2018-05-11T01:05:48.983Z,19.64
2018-05-11T01:06:49.163Z,19.61
2018-05-11T01:07:49.263Z,19.63
2018-05-11T01:08:49.258Z,19.64
2018-05-11T01:09:49.020Z,19.64
2018-05-11T01:10:49.055Z,19.63
2018-05-11T01:11:48.970Z,19.64
2018-05-11T01:12:49.178Z,19.63
2018-05-11T01:13:48.778Z,19.61
2018-05-11T01:14:49.145Z,19.63
2018-05-11T01:15:49.022Z,19.61
2018-05-11T01:16:49.423Z,19.63
2018-05-11T01:17:49.183Z,19.64
2018-05-11T01:18:49.183Z,19.63
2018-05-11T01:19:49.217Z,19.63
2018-05-11T01:20:49.212Z,19.63
2018-05-11T01:21:49.084Z,19.61
2018-05-11T01:22:49.211Z,19.58
2018-05-11T01:23:48.968Z,19.63
2018-05-11T01:24:49.031Z,19.58
2018-05-11T01:25:49.005Z,19.6
2018-05-11T01:26:49.152Z,19.6
2018-05-11T01:27:49.099Z,19.6
2018-05-11T01:28:49.245Z,19.6
2018-05-11T01:29:49.107Z,19.6
2018-05-11T01:30:48.966Z,19.58
2018-05-11T01:31:49.133Z,19.61
2018-05-11T01:32:49.006Z,19.6
2018-05-11T01:33:49.185Z,19.61
2018-05-11T01:34:48.987Z,19.58
2018-05-11T01:35:49.198Z,19.58
2018-05-11T01:36:49.135Z,19.6
2018-05-11T01:37:48.948Z,19.6
2018-05-11T01:38:49.123Z,19.61
2018-05-11T01:39:49.594Z,19.6
2018-05-11T01:40:49.147Z,19.56
2018-05-11T01:41:49.141Z,19.57
2018-05-11T01:42:48.993Z,19.57
2018-05-11T01:43:49.107Z,19.58
2018-05-11T01:44:49.071Z,19.6
2018-05-11T01:45:49.143Z,19.58
2018-05-11T01:46:49.044Z,19.57
2018-05-11T01:47:49.066Z,19.57
2018-05-11T01:48:49.729Z,19.57
2018-05-11T01:49:49.190Z,19.57
2018-05-11T01:50:48.977Z,19.58
2018-05-11T01:51:48.923Z,19.61
2018-05-11T01:52:49.303Z,19.56
2018-05-11T01:53:49.057Z,19.58
2018-05-11T01:54:49.084Z,19.58
2018-05-11T01:55:49.011Z,19.56
2018-05-11T01:56:48.996Z,19.57
2018-05-11T01:57:49.196Z,19.54
2018-05-11T01:58:48.928Z,19.56
2018-05-11T01:59:49.007Z,19.56
2018-05-11T02:00:48.991Z,19.57
2018-05-11T02:01:49.292Z,19.57
2018-05-11T02:02:48.965Z,19.56
2018-05-11T02:03:49.012Z,19.56
2018-05-11T02:04:49.254Z,19.56
2018-05-11T02:05:49.521Z,19.56
2018-05-11T02:06:49.183Z,19.58
2018-05-11T02:07:49.166Z,19.56
2018-05-11T02:08:49.039Z,19.56
2018-05-11T02:09:49.336Z,19.57
2018-05-11T02:10:49.069Z,19.57
2018-05-11T02:11:49.103Z,19.56
2018-05-11T02:12:48.957Z,19.57
2018-05-11T02:13:49.189Z,19.54
2018-05-11T02:14:49.054Z,19.54
2018-05-11T02:15:49.440Z,19.54
2018-05-11T02:16:49.229Z,19.56
2018-05-11T02:17:48.955Z,19.56
2018-05-11T02:18:48.957Z,19.56
2018-05-11T02:19:48.976Z,19.57
2018-05-11T02:20:49.247Z,19.54
2018-05-11T02:21:49.079Z,19.56
2018-05-11T02:22:49.251Z,19.57
2018-05-11T02:23:48.975Z,19.56
2018-05-11T02:24:49.008Z,19.54
2018-05-11T02:25:50.047Z,19.56
2018-05-11T02:26:49.015Z,19.56
2018-05-11T02:27:49.233Z,19.56
2018-05-11T02:28:49.062Z,19.56
2018-05-11T02:29:49.141Z,19.58
2018-05-11T02:30:49.097Z,19.56
2018-05-11T02:31:49.221Z,19.53
2018-05-11T02:32:49.190Z,19.57
2018-05-11T02:33:49.003Z,19.56
2018-05-11T02:34:49.174Z,19.57
2018-05-11T02:35:49.064Z,19.54
2018-05-11T02:36:49.084Z,19.56
2018-05-11T02:37:49.093Z,19.53
2018-05-11T02:38:49.189Z,19.56
2018-05-11T02:39:49.183Z,19.54
2018-05-11T02:40:48.934Z,19.52
2018-05-11T02:41:49.088Z,19.56
2018-05-11T02:42:49.122Z,19.54
2018-05-11T02:43:49.048Z,19.56
2018-05-11T02:44:49.044Z,19.56
2018-05-11T02:45:49.101Z,19.56
2018-05-11T02:46:49.070Z,19.52
2018-05-11T02:47:48.966Z,19.54
2018-05-11T02:48:49.025Z,19.53
2018-05-11T02:49:49.007Z,19.53
2018-05-11T02:50:49.048Z,19.54
2018-05-11T02:51:49.164Z,19.53
2018-05-11T02:52:49.558Z,19.54
2018-05-11T02:53:49.136Z,19.53
2018-05-11T02:54:49.096Z,19.54
2018-05-11T02:55:49.087Z,19.53
2018-05-11T02:56:49.109Z,19.54
2018-05-11T02:57:49.154Z,19.53
2018-05-11T02:58:49.092Z,19.54
2018-05-11T02:59:49.009Z,19.53
2018-05-11T03:00:48.975Z,19.52
2018-05-11T03:02:20.466Z,19.52
2018-05-11T03:02:49.185Z,19.52
2018-05-11T03:03:49.006Z,19.52
2018-05-11T03:04:49.174Z,19.52
2018-05-11T03:05:48.996Z,19.5
2018-05-11T03:06:49.112Z,19.52
2018-05-11T03:07:49.167Z,19.49
2018-05-11T03:08:49.087Z,19.52
2018-05-11T03:09:48.956Z,19.5
2018-05-11T03:10:49.093Z,19.49
2018-05-11T03:11:49.075Z,19.52
2018-05-11T03:12:49.048Z,19.5
2018-05-11T03:13:49.050Z,19.5
2018-05-11T03:14:49.150Z,19.52
2018-05-11T03:15:48.883Z,19.5
2018-05-11T03:16:49.124Z,19.5
2018-05-11T03:17:49.157Z,19.5
2018-05-11T03:18:49.648Z,19.49
2018-05-11T03:19:49.125Z,19.52
2018-05-11T03:20:49.250Z,19.47
2018-05-11T03:21:49.088Z,19.5
2018-05-11T03:22:49.048Z,19.52
2018-05-11T03:23:49.134Z,19.5
2018-05-11T03:24:49.115Z,19.5
2018-05-11T03:25:48.910Z,19.5
2018-05-11T03:26:49.003Z,19.52
2018-05-11T03:27:49.536Z,19.5
2018-05-11T03:28:49.034Z,19.52
2018-05-11T03:29:49.090Z,19.49
2018-05-11T03:30:48.987Z,19.5
2018-05-11T03:31:49.258Z,19.49
2018-05-11T03:32:49.076Z,19.49
2018-05-11T03:33:48.952Z,19.47
2018-05-11T03:34:49.003Z,19.46
2018-05-11T03:35:49.088Z,19.47
2018-05-11T03:36:49.147Z,19.5
2018-05-11T03:37:49.379Z,19.47
2018-05-11T03:38:49.009Z,19.47
2018-05-11T03:39:49.022Z,19.49
2018-05-11T03:40:49.119Z,19.46
2018-05-11T03:41:49.064Z,19.46
2018-05-11T03:42:49.272Z,19.46
2018-05-11T03:43:49.197Z,19.47
2018-05-11T03:44:49.027Z,19.49
2018-05-11T03:45:49.148Z,19.45
2018-05-11T03:46:48.882Z,19.47
2018-05-11T03:47:49.061Z,19.47
2018-05-11T03:48:49.173Z,19.47
2018-05-11T03:49:49.000Z,19.49
2018-05-11T03:50:48.909Z,19.49
2018-05-11T03:51:49.030Z,19.46
2018-05-11T03:52:48.931Z,19.49
2018-05-11T03:53:48.926Z,19.47
2018-05-11T03:54:49.026Z,19.47
2018-05-11T03:55:49.028Z,19.46
2018-05-11T03:56:49.029Z,19.47
2018-05-11T03:57:49.424Z,19.46
2018-05-11T03:58:49.066Z,19.46
2018-05-11T03:59:49.297Z,19.46
2018-05-11T04:00:48.891Z,19.49
2018-05-11T04:01:49.089Z,19.49
2018-05-11T04:02:48.915Z,19.46
2018-05-11T04:03:48.902Z,19.45
2018-05-11T04:04:49.066Z,19.45
2018-05-11T04:05:49.011Z,19.46
2018-05-11T04:06:49.129Z,19.47
2018-05-11T04:07:48.878Z,19.47
2018-05-11T04:08:48.931Z,19.47
2018-05-11T04:09:49.022Z,19.47
2018-05-11T04:10:49.187Z,19.47
2018-05-11T04:11:49.132Z,19.47
2018-05-11T04:12:49.203Z,19.46
2018-05-11T04:13:49.258Z,19.46
2018-05-11T04:14:48.932Z,19.45
2018-05-11T04:15:48.960Z,19.45
2018-05-11T04:16:49.156Z,19.46
2018-05-11T04:17:49.014Z,19.46
2018-05-11T04:18:49.124Z,19.47
2018-05-11T04:19:49.052Z,19.46
2018-05-11T04:20:49.627Z,19.47
2018-05-11T04:21:49.011Z,19.47
2018-05-11T04:22:49.022Z,19.45
2018-05-11T04:23:48.912Z,19.45
2018-05-11T04:24:48.979Z,19.42
2018-05-11T04:25:49.295Z,19.47
2018-05-11T04:26:48.999Z,19.46
2018-05-11T04:27:49.093Z,19.46
2018-05-11T04:28:48.953Z,19.45
2018-05-11T04:29:48.876Z,19.47
2018-05-11T04:30:49.119Z,19.46
2018-05-11T04:31:49.050Z,19.46
2018-05-11T04:32:48.878Z,19.47
2018-05-11T04:33:49.083Z,19.46
2018-05-11T04:34:49.210Z,19.45
2018-05-11T04:35:48.894Z,19.46
2018-05-11T04:36:49.111Z,19.45
2018-05-11T04:37:48.948Z,19.43
2018-05-11T04:38:49.240Z,19.43
2018-05-11T04:39:48.937Z,19.45
2018-05-11T04:40:49.060Z,19.46
2018-05-11T04:41:49.010Z,19.46
2018-05-11T04:42:48.914Z,19.47
2018-05-11T04:43:49.102Z,19.46
2018-05-11T04:44:49.116Z,19.45
2018-05-11T04:45:48.935Z,19.46
2018-05-11T04:46:49.104Z,19.45
2018-05-11T04:47:49.054Z,19.45
2018-05-11T04:48:48.967Z,19.45
2018-05-11T04:49:49.043Z,19.43
2018-05-11T04:50:49.116Z,19.47
2018-05-11T04:51:48.984Z,19.49
2018-05-11T04:52:49.084Z,19.47
2018-05-11T04:53:49.208Z,19.43
2018-05-11T04:54:49.093Z,19.45
2018-05-11T04:55:49.167Z,19.46
2018-05-11T04:56:48.950Z,19.45
2018-05-11T04:57:49.036Z,19.46
2018-05-11T04:58:49.056Z,19.45
2018-05-11T04:59:49.150Z,19.45
2018-05-11T05:00:48.973Z,19.43
2018-05-11T05:01:48.976Z,19.46
2018-05-11T05:02:48.983Z,19.45
2018-05-11T05:03:48.960Z,19.45
2018-05-11T05:04:48.976Z,19.46
2018-05-11T05:05:48.876Z,19.46
2018-05-11T05:06:49.170Z,19.45
2018-05-11T05:07:48.969Z,19.45
2018-05-11T05:08:49.048Z,19.43
2018-05-11T05:09:49.025Z,19.47
2018-05-11T05:10:48.963Z,19.46
2018-05-11T05:11:49.007Z,19.46
2018-05-11T05:12:48.849Z,19.45
2018-05-11T05:13:49.041Z,19.45
2018-05-11T05:14:48.992Z,19.47
2018-05-11T05:15:49.010Z,19.45
2018-05-11T05:16:49.080Z,19.47
2018-05-11T05:17:48.941Z,19.45
2018-05-11T05:18:49.004Z,19.45
2018-05-11T05:19:49.172Z,19.49
2018-05-11T05:20:48.991Z,19.45
2018-05-11T05:21:49.136Z,19.47
2018-05-11T05:22:48.973Z,19.49
2018-05-11T05:23:49.024Z,19.47
2018-05-11T05:24:48.914Z,19.45
2018-05-11T05:25:49.386Z,19.42
2018-05-11T05:26:49.329Z,19.45
2018-05-11T05:27:49.005Z,19.45
2018-05-11T05:28:49.142Z,19.46
2018-05-11T05:29:48.964Z,19.45
2018-05-11T05:30:49.079Z,19.45
2018-05-11T05:31:48.914Z,19.46
2018-05-11T05:32:48.930Z,19.43
2018-05-11T05:33:49.001Z,19.46
2018-05-11T05:34:48.975Z,19.43
2018-05-11T05:35:49.068Z,19.45
2018-05-11T05:36:49.104Z,19.46
2018-05-11T05:37:49.055Z,19.43
2018-05-11T05:38:48.952Z,19.47
2018-05-11T05:39:49.037Z,19.46
2018-05-11T05:40:49.065Z,19.47
2018-05-11T05:41:48.968Z,19.46
2018-05-11T05:42:49.159Z,19.45
2018-05-11T05:43:48.980Z,19.45
2018-05-11T05:44:48.969Z,19.45
2018-05-11T05:45:49.563Z,19.45
2018-05-11T05:46:49.116Z,19.42
2018-05-11T05:47:49.116Z,19.43
2018-05-11T05:48:48.989Z,19.42
2018-05-11T05:49:49.127Z,19.43
2018-05-11T05:50:48.997Z,19.45
2018-05-11T05:51:49.028Z,19.43
2018-05-11T05:52:48.916Z,19.42
2018-05-11T05:53:49.108Z,19.43
2018-05-11T05:54:49.082Z,19.43
2018-05-11T05:55:49.096Z,19.45
2018-05-11T05:56:48.980Z,19.45
2018-05-11T05:57:48.985Z,19.43
2018-05-11T05:58:48.862Z,19.42
2018-05-11T05:59:49.153Z,19.43
2018-05-11T06:00:48.872Z,19.43
2018-05-11T06:01:49.037Z,19.43
2018-05-11T06:02:49.181Z,19.45
2018-05-11T06:03:49.017Z,19.43
2018-05-11T06:04:48.940Z,19.43
2018-05-11T06:05:48.996Z,19.43
2018-05-11T06:06:48.870Z,19.43
2018-05-11T06:07:49.029Z,19.43
2018-05-11T06:08:48.977Z,19.45
2018-05-11T06:09:48.954Z,19.43
2018-05-11T06:10:49.881Z,19.43
2018-05-11T06:11:49.000Z,19.45
2018-05-11T06:12:49.028Z,19.45
2018-05-11T06:13:48.851Z,19.43
2018-05-11T06:14:48.954Z,19.45
2018-05-11T06:15:48.937Z,19.42
2018-05-11T06:16:49.144Z,19.45
2018-05-11T06:17:49.058Z,19.42
2018-05-11T06:18:49.159Z,19.46
2018-05-11T06:19:49.011Z,19.45
2018-05-11T06:20:48.957Z,19.45
2018-05-11T06:21:49.006Z,19.45
2018-05-11T06:22:49.389Z,19.45
2018-05-11T06:23:49.083Z,19.45
2018-05-11T06:24:49.762Z,19.43
2018-05-11T06:25:48.973Z,19.42
2018-05-11T06:26:49.342Z,19.45
2018-05-11T06:27:59.033Z,19.47
2018-05-11T06:28:49.057Z,19.43
2018-05-11T06:29:48.947Z,19.45
2018-05-11T06:30:49.132Z,19.43
2018-05-11T06:31:48.956Z,19.43
2018-05-11T06:32:49.136Z,19.43
2018-05-11T06:33:49.025Z,19.42
2018-05-11T06:34:49.015Z,19.43
2018-05-11T06:35:49.548Z,19.45
2018-05-11T06:36:48.916Z,19.43
2018-05-11T06:37:48.890Z,19.43
2018-05-11T06:38:49.054Z,19.43
2018-05-11T06:39:49.119Z,19.42
2018-05-11T06:40:48.911Z,19.45
2018-05-11T06:41:49.060Z,19.43
2018-05-11T06:42:49.126Z,19.43
2018-05-11T06:43:48.908Z,19.45
2018-05-11T06:44:49.029Z,19.45
2018-05-11T06:45:49.067Z,19.43
2018-05-11T06:46:49.227Z,19.46
2018-05-11T06:47:48.962Z,19.42
2018-05-11T06:48:49.002Z,19.45
2018-05-11T06:49:49.091Z,19.42
2018-05-11T06:50:49.141Z,19.45
2018-05-11T06:51:49.096Z,19.43
2018-05-11T06:52:48.881Z,19.43
2018-05-11T06:53:49.060Z,19.43
2018-05-11T06:54:49.054Z,19.45
2018-05-11T06:55:49.541Z,19.43
2018-05-11T06:56:49.554Z,19.45
2018-05-11T06:57:48.900Z,19.42
2018-05-11T06:58:51.532Z,19.42
2018-05-11T06:59:48.988Z,19.42
2018-05-11T07:00:49.293Z,19.43
2018-05-11T07:01:48.959Z,19.43
2018-05-11T07:02:49.187Z,19.43
2018-05-11T07:03:49.057Z,19.43
2018-05-11T07:04:48.982Z,19.4
2018-05-11T07:05:48.852Z,19.45
2018-05-11T07:06:49.028Z,19.42
2018-05-11T07:07:50.263Z,19.42
2018-05-11T07:08:48.952Z,19.4
2018-05-11T07:09:49.088Z,19.45
2018-05-11T07:10:49.015Z,19.46
2018-05-11T07:11:49.095Z,19.43
2018-05-11T07:12:48.857Z,19.43
2018-05-11T07:13:48.915Z,19.42
2018-05-11T07:14:48.878Z,19.39
2018-05-11T07:15:49.735Z,19.43
2018-05-11T07:16:49.170Z,19.46
2018-05-11T07:17:48.941Z,19.45
2018-05-11T07:18:48.918Z,19.42
2018-05-11T07:19:49.125Z,19.45
2018-05-11T07:20:48.982Z,19.43
2018-05-11T07:21:48.941Z,19.45
2018-05-11T07:22:49.425Z,19.43
2018-05-11T07:23:48.988Z,19.43
2018-05-11T07:24:48.989Z,19.43
2018-05-11T07:25:49.782Z,19.45
2018-05-11T07:26:49.053Z,19.45
2018-05-11T07:27:48.995Z,19.45
2018-05-11T07:28:49.244Z,19.42
2018-05-11T07:29:48.893Z,19.43
2018-05-11T07:30:49.179Z,19.4
2018-05-11T07:31:48.935Z,19.4
2018-05-11T07:32:48.993Z,19.39
2018-05-11T07:33:49.083Z,19.42
2018-05-11T07:34:49.316Z,19.39
2018-05-11T07:35:49.142Z,19.39
2018-05-11T07:36:48.982Z,19.4
2018-05-11T07:37:49.001Z,19.39
2018-05-11T07:38:49.035Z,19.43
2018-05-11T07:39:49.007Z,19.42
2018-05-11T07:40:48.987Z,19.42
2018-05-11T07:41:48.942Z,19.4
2018-05-11T07:42:49.071Z,19.39
2018-05-11T07:43:48.995Z,19.4
2018-05-11T07:44:49.217Z,19.4
2018-05-11T07:45:49.072Z,19.45
2018-05-11T07:46:48.969Z,19.43
2018-05-11T07:47:49.080Z,19.45
2018-05-11T07:48:49.118Z,19.43
2018-05-11T07:49:49.242Z,19.46
2018-05-11T07:50:48.857Z,19.47
2018-05-11T07:51:48.882Z,19.47
2018-05-11T07:52:48.952Z,19.46
2018-05-11T07:53:48.859Z,19.49
2018-05-11T07:54:49.059Z,19.47
2018-05-11T07:55:49.025Z,19.45
2018-05-11T07:56:48.880Z,19.47
2018-05-11T07:57:48.982Z,19.47
2018-05-11T07:58:48.879Z,19.46
2018-05-11T07:59:49.073Z,19.47
2018-05-11T08:00:48.845Z,19.49
2018-05-11T08:01:49.213Z,19.47
2018-05-11T08:02:48.897Z,19.45
2018-05-11T08:03:49.327Z,19.45
2018-05-11T08:04:49.031Z,19.47
2018-05-11T08:05:49.080Z,19.49
2018-05-11T08:06:49.138Z,19.47
2018-05-11T08:07:48.842Z,19.47
2018-05-11T08:08:49.031Z,19.47
2018-05-11T08:09:48.968Z,19.46
2018-05-11T08:10:49.097Z,19.47
2018-05-11T08:11:49.042Z,19.46
2018-05-11T08:12:48.847Z,19.45
2018-05-11T08:13:49.053Z,19.46
2018-05-11T08:14:48.847Z,19.46
2018-05-11T08:15:48.881Z,19.46
2018-05-11T08:16:49.104Z,19.47
2018-05-11T08:17:48.962Z,19.45
2018-05-11T08:18:49.585Z,19.45
2018-05-11T08:19:49.035Z,19.46
2018-05-11T08:20:49.259Z,19.45
2018-05-11T08:21:49.441Z,19.46
2018-05-11T08:22:48.832Z,19.47
2018-05-11T08:23:48.884Z,19.46
2018-05-11T08:24:48.953Z,19.46
2018-05-11T08:25:49.060Z,19.47
2018-05-11T08:26:50.001Z,19.45
2018-05-11T08:27:49.037Z,19.47
2018-05-11T08:28:58.964Z,19.46
2018-05-11T08:29:48.906Z,19.45
2018-05-11T08:30:48.955Z,19.47
2018-05-11T08:31:49.062Z,19.45
2018-05-11T08:32:48.872Z,19.47
2018-05-11T08:33:48.959Z,19.47
2018-05-11T08:34:49.069Z,19.49
2018-05-11T08:35:49.976Z,19.47
2018-05-11T08:36:49.104Z,19.49
2018-05-11T08:37:48.957Z,19.46
2018-05-11T08:38:48.932Z,19.46
2018-05-11T08:39:48.922Z,19.46
2018-05-11T08:40:48.865Z,19.46
2018-05-11T08:41:48.900Z,19.49
2018-05-11T08:42:48.908Z,19.47
2018-05-11T08:43:49.123Z,19.47
2018-05-11T08:44:48.987Z,19.49
2018-05-11T08:45:49.060Z,19.46
2018-05-11T08:46:49.053Z,19.47
2018-05-11T08:47:48.954Z,19.39
2018-05-11T08:48:48.881Z,19.32
2018-05-11T08:49:49.016Z,19.33
2018-05-11T08:50:49.035Z,19.36
2018-05-11T08:51:49.332Z,19.36
2018-05-11T08:52:48.901Z,19.36
2018-05-11T08:53:48.976Z,19.36
2018-05-11T08:54:48.882Z,19.37
2018-05-11T08:55:49.571Z,19.39
2018-05-11T08:56:48.870Z,19.4
2018-05-11T08:57:49.182Z,19.43
2018-05-11T08:58:49.076Z,19.46
2018-05-11T08:59:49.011Z,19.43
2018-05-11T09:00:48.957Z,19.47
2018-05-11T09:01:49.089Z,19.47
2018-05-11T09:02:48.907Z,19.47
2018-05-11T09:03:48.950Z,19.46
2018-05-11T09:04:48.906Z,19.46
2018-05-11T09:05:48.847Z,19.49
2018-05-11T09:06:48.980Z,19.46
2018-05-11T09:07:48.950Z,19.49
2018-05-11T09:08:48.981Z,19.47
2018-05-11T09:09:49.170Z,19.49
2018-05-11T09:10:49.046Z,19.47
2018-05-11T09:11:48.940Z,19.5
2018-05-11T09:12:48.941Z,19.45
2018-05-11T09:13:48.954Z,19.47
2018-05-11T09:14:48.967Z,19.5
2018-05-11T09:15:49.065Z,19.47
2018-05-11T09:16:48.915Z,19.49
2018-05-11T09:17:48.871Z,19.47
2018-05-11T09:18:49.097Z,19.47
2018-05-11T09:19:49.104Z,19.46
2018-05-11T09:20:48.878Z,19.52
2018-05-11T09:21:48.917Z,19.49
2018-05-11T09:22:48.925Z,19.47
2018-05-11T09:23:48.922Z,19.53
2018-05-11T09:24:49.037Z,19.5
2018-05-11T09:25:48.852Z,19.5
2018-05-11T09:26:48.909Z,19.53
2018-05-11T09:27:48.909Z,19.52
2018-05-11T09:28:48.938Z,19.5
2018-05-11T09:29:48.985Z,19.52
2018-05-11T09:30:49.004Z,19.52
2018-05-11T09:31:49.428Z,19.53
2018-05-11T09:32:48.891Z,19.5
2018-05-11T09:33:49.088Z,19.49
2018-05-11T09:34:48.858Z,19.5
2018-05-11T09:35:48.902Z,19.47
2018-05-11T09:36:49.025Z,19.49
2018-05-11T09:37:49.029Z,19.5
2018-05-11T09:38:48.990Z,19.52
2018-05-11T09:39:50.082Z,19.47
2018-05-11T09:40:49.041Z,19.47
2018-05-11T09:41:49.002Z,19.53
2018-05-11T09:42:14.234Z,19.56
2018-05-11T09:43:14.408Z,19.52
2018-05-11T09:44:14.541Z,19.53
2018-05-11T09:45:14.419Z,19.5
2018-05-11T09:46:14.303Z,19.58
2018-05-11T09:47:14.310Z,19.49
2018-05-11T09:48:14.292Z,19.43
2018-05-11T09:49:14.437Z,19.47
2018-05-11T09:50:14.420Z,19.45
2018-05-11T09:51:14.312Z,19.42
2018-05-11T09:52:24.310Z,19.47
2018-05-11T09:53:14.458Z,19.49
2018-05-11T09:54:14.302Z,19.46
2018-05-11T09:55:14.439Z,19.46
2018-05-11T09:56:14.535Z,19.47
2018-05-11T09:57:14.241Z,19.46
2018-05-11T09:58:14.312Z,19.49
2018-05-11T09:59:14.255Z,19.46
2018-05-11T10:00:14.463Z,19.46
2018-05-11T10:01:14.276Z,19.5
2018-05-11T10:02:14.383Z,19.45
2018-05-11T10:03:14.378Z,19.5
2018-05-11T10:04:14.269Z,19.53
2018-05-11T10:05:14.302Z,19.47
2018-05-11T10:06:14.349Z,19.42
2018-05-11T10:07:14.407Z,19.45
2018-05-11T10:08:14.532Z,19.67
2018-05-11T10:09:14.487Z,19.61
2018-05-11T10:10:14.439Z,19.77
2018-05-11T10:11:14.305Z,19.78
2018-05-11T10:12:14.440Z,19.7
2018-05-11T10:13:14.340Z,19.68
2018-05-11T10:14:14.307Z,19.6
2018-05-11T10:15:14.538Z,19.61
2018-05-11T10:16:14.331Z,19.61
2018-05-11T10:17:14.406Z,19.58
2018-05-11T10:18:14.480Z,19.56
2018-05-11T10:19:14.403Z,19.61
2018-05-11T10:20:14.425Z,19.6
2018-05-11T10:21:14.310Z,19.57
2018-05-11T10:22:14.488Z,19.58
2018-05-11T10:23:14.234Z,19.57
2018-05-11T10:24:14.333Z,19.61
2018-05-11T10:25:14.268Z,19.63
2018-05-11T10:26:14.376Z,19.6
2018-05-11T10:27:14.508Z,19.6
2018-05-11T10:28:14.564Z,19.63
2018-05-11T10:29:14.404Z,19.64
2018-05-11T10:30:14.396Z,19.67
2018-05-11T10:31:14.344Z,19.67
2018-05-11T10:32:14.242Z,19.67
2018-05-11T10:33:14.807Z,19.64
2018-05-11T10:34:14.460Z,19.65
2018-05-11T10:35:14.281Z,19.7
2018-05-11T10:36:14.262Z,19.68
2018-05-11T10:37:14.343Z,19.68
2018-05-11T10:38:14.355Z,19.67
2018-05-11T10:39:14.398Z,19.68
2018-05-11T10:40:14.432Z,19.67
2018-05-11T10:41:14.342Z,19.65
2018-05-11T10:42:14.381Z,19.63
2018-05-11T10:43:14.310Z,19.68
2018-05-11T10:44:14.421Z,19.67
2018-05-11T10:45:14.427Z,19.71
2018-05-11T10:46:14.205Z,19.73
2018-05-11T10:47:14.250Z,19.73
2018-05-11T10:48:14.304Z,19.73
2018-05-11T10:49:14.300Z,19.73
2018-05-11T10:50:14.339Z,19.75
2018-05-11T10:51:14.325Z,19.75
2018-05-11T10:52:14.379Z,19.77
2018-05-11T10:53:14.396Z,19.78
2018-05-11T10:54:14.794Z,19.77
2018-05-11T10:55:14.394Z,19.78
2018-05-11T10:56:14.350Z,19.75
2018-05-11T10:57:14.364Z,19.77
2018-05-11T10:58:14.524Z,19.77
2018-05-11T10:59:14.344Z,19.77
2018-05-11T11:00:14.285Z,19.78
2018-05-11T11:01:24.466Z,19.8
2018-05-11T11:02:14.542Z,19.84
2018-05-11T11:03:14.489Z,19.84
2018-05-11T11:04:14.429Z,19.86
2018-05-11T11:05:14.449Z,19.86
2018-05-11T11:05:55.011Z,19.86
2018-05-11T11:06:17.323Z,19.86
2018-05-11T11:07:17.454Z,19.86
2018-05-11T11:08:17.506Z,19.86
2018-05-11T11:09:17.406Z,19.86
2018-05-11T11:10:17.499Z,19.86
2018-05-11T11:11:17.381Z,19.86
2018-05-11T11:12:17.406Z,19.86
2018-05-11T11:13:00.680Z,19.89
2018-05-11T11:14:00.968Z,19.85
2018-05-11T11:15:01.105Z,19.82
2018-05-11T11:16:00.958Z,19.8
2018-05-11T11:17:00.910Z,19.84
2018-05-11T11:18:01.965Z,19.82
2018-05-11T11:19:01.143Z,19.81
2018-05-11T11:20:01.762Z,19.85
2018-05-11T11:21:01.278Z,19.8
2018-05-11T11:22:01.017Z,19.81
2018-05-11T11:23:00.907Z,19.82
2018-05-11T11:24:00.437Z,19.85
2018-05-11T11:25:00.307Z,19.82
2018-05-11T11:26:01.162Z,19.82
2018-05-11T11:27:00.394Z,19.84
2018-05-11T11:28:00.310Z,19.86
2018-05-11T11:29:00.423Z,19.85
2018-05-11T11:30:00.466Z,19.85
2018-05-11T11:31:00.387Z,19.85
2018-05-11T11:32:00.400Z,19.86
2018-05-11T11:33:00.505Z,19.88
2018-05-11T11:34:00.500Z,19.89
2018-05-11T11:34:35.243Z,19.91
2018-05-11T11:35:35.136Z,19.88
2018-05-11T11:36:34.954Z,19.85
2018-05-11T11:37:34.918Z,19.84
2018-05-11T11:38:34.959Z,19.88
2018-05-11T11:39:34.763Z,19.86
2018-05-11T11:40:49.331Z,19.86
2018-05-11T11:41:50.057Z,19.86
2018-05-11T11:42:49.349Z,19.86
2018-05-11T11:43:57.107Z,19.88
2018-05-11T11:44:57.193Z,19.89
2018-05-11T11:45:57.157Z,19.92
2018-05-11T11:46:57.254Z,19.91
2018-05-11T11:47:57.052Z,19.92
2018-05-11T11:48:57.096Z,19.89
2018-05-11T11:49:57.049Z,19.85
2018-05-11T11:50:57.085Z,19.85
2018-05-11T11:51:57.244Z,19.86
2018-05-11T11:52:56.969Z,19.86
2018-05-11T11:53:57.183Z,19.82
2018-05-11T11:54:57.079Z,19.84
2018-05-11T11:55:57.205Z,19.78
2018-05-11T11:56:57.334Z,19.81
2018-05-11T11:57:57.019Z,19.78
2018-05-11T11:58:57.277Z,19.81
2018-05-11T11:59:57.096Z,19.82
2018-05-11T12:00:57.225Z,19.8
2018-05-11T12:01:57.660Z,19.77
2018-05-11T12:02:57.384Z,19.8
2018-05-11T12:03:57.389Z,19.8
2018-05-11T12:04:57.202Z,19.77
2018-05-11T12:05:57.149Z,19.77
2018-05-11T12:06:57.347Z,19.77
2018-05-11T12:07:57.141Z,19.74
2018-05-11T12:08:57.591Z,19.75
2018-05-11T12:09:57.397Z,19.78
2018-05-11T12:10:57.275Z,19.75
2018-05-11T12:11:57.144Z,19.78
2018-05-11T12:12:57.170Z,19.75
2018-05-11T12:13:57.214Z,19.75
2018-05-11T12:14:57.388Z,19.75
2018-05-11T12:15:57.087Z,19.75
2018-05-11T12:16:57.223Z,19.78
2018-05-11T12:17:57.249Z,19.75
2018-05-11T12:18:57.142Z,19.74
2018-05-11T12:19:57.168Z,19.71
2018-05-11T12:20:57.065Z,19.73
2018-05-11T12:21:57.309Z,19.7
2018-05-11T12:22:57.010Z,19.67
2018-05-11T12:23:57.260Z,19.63
2018-05-11T12:24:57.330Z,19.67
2018-05-11T12:25:57.174Z,19.65
2018-05-11T12:26:57.092Z,19.65
2018-05-11T12:27:57.224Z,19.61
2018-05-11T12:28:57.000Z,19.64
2018-05-11T12:29:57.054Z,19.64
2018-05-11T12:30:56.969Z,19.6
2018-05-11T12:31:57.004Z,19.63
2018-05-11T12:32:57.116Z,19.6
2018-05-11T12:33:57.123Z,19.61
2018-05-11T12:34:57.813Z,19.61
2018-05-11T12:35:57.180Z,19.58
2018-05-11T19:00:52.927Z,17.6
2018-05-11T19:01:53.067Z,17.7
2018-05-11T19:03:03.043Z,17.78
2018-05-11T19:03:52.945Z,17.85
2018-05-11T19:04:53.090Z,17.98
2018-05-11T19:05:53.077Z,18.07
2018-05-11T19:06:53.097Z,18.16
2018-05-11T19:07:52.995Z,18.29
2018-05-11T19:08:53.804Z,18.36
2018-05-11T19:09:53.119Z,18.49
2018-05-11T19:10:53.049Z,18.58
2018-05-11T19:11:53.193Z,18.64
2018-05-11T19:12:53.323Z,18.71
2018-05-11T19:13:53.275Z,18.78
2018-05-11T19:14:52.865Z,18.84
2018-05-11T19:15:53.026Z,18.91
2018-05-11T19:16:53.040Z,18.95